Time;durP1;ratioP1;P1;durP2;ratioP2;P2;SDS_P1;SDS_P2;PMS_P1;PMS_P2;Temp;Humidity;BMP_temperature;BMP_pressure;BME280_temperature;BME280_humidity;BME280_pressure;Samples;Min_cycle;Max_cycle;Signal;HPM_P1;HPM_P2
2024/02/04 00:00:43;;;;;;;2.33;1.20;;;9.10;74.90;;;;;;5013940;28;20468;-69
2024/02/04 00:03:09;;;;;;;1.27;1.07;;;9.10;75.10;;;;;;5018868;28;21022;-69
2024/02/04 00:05:34;;;;;;;2.40;1.20;;;9.20;75.10;;;;;;5026593;28;20193;-70
2024/02/04 00:08:00;;;;;;;1.97;1.20;;;9.20;74.90;;;;;;5026131;28;20249;-70
2024/02/04 00:10:26;;;;;;;1.20;0.90;;;9.20;74.90;;;;;;5027653;28;20745;-69
2024/02/04 00:12:52;;;;;;;1.60;0.80;;;9.10;75.10;;;;;;5024758;28;20264;-70
2024/02/04 00:15:17;;;;;;;2.40;1.00;;;9.10;75.10;;;;;;5028743;28;20523;-68
2024/02/04 00:17:43;;;;;;;1.30;1.00;;;9.10;74.90;;;;;;5030172;28;20236;-70
2024/02/04 00:20:09;;;;;;;0.93;0.77;;;9.10;75.10;;;;;;5025964;28;20181;-70
2024/02/04 00:22:35;;;;;;;1.43;1.00;;;9.10;75.10;;;;;;5026512;28;20241;-69
2024/02/04 00:25:10;;;;;;;1.27;0.73;;;9.10;75.20;;;;;;5027129;28;20499;-69
2024/02/04 00:27:35;;;;;;;1.67;0.70;;;9.10;75.20;;;;;;5027777;28;20334;-70
2024/02/04 00:30:01;;;;;;;2.50;0.90;;;9.00;75.40;;;;;;5027706;28;20852;-71
2024/02/04 00:32:27;;;;;;;1.53;0.80;;;9.00;75.50;;;;;;5023597;28;20201;-71
2024/02/04 00:34:53;;;;;;;0.73;0.70;;;9.00;75.70;;;;;;5028114;28;20316;-71
2024/02/04 00:37:19;;;;;;;1.00;0.90;;;8.90;75.70;;;;;;5029831;28;20791;-69
2024/02/04 00:39:45;;;;;;;1.00;0.67;;;8.90;75.80;;;;;;5029579;28;20424;-70
2024/02/04 00:42:10;;;;;;;0.93;0.63;;;8.90;75.80;;;;;;5022813;28;20475;-71
2024/02/04 00:44:36;;;;;;;1.33;0.90;;;8.90;75.90;;;;;;5025448;28;20185;-70
2024/02/04 00:47:02;;;;;;;2.87;0.87;;;8.90;75.80;;;;;;5031408;28;20213;-71
2024/02/04 00:49:28;;;;;;;1.20;0.87;;;8.90;75.90;;;;;;5027625;28;20208;-70
2024/02/04 00:51:54;;;;;;;1.03;0.60;;;8.90;75.80;;;;;;5030437;28;20467;-71
2024/02/04 00:54:19;;;;;;;1.43;0.80;;;8.80;76.10;;;;;;5032604;28;20272;-71
2024/02/04 00:56:45;;;;;;;1.33;0.80;;;8.80;76.10;;;;;;5031566;28;20498;-70
2024/02/04 00:59:11;;;;;;;0.80;0.60;;;8.80;76.20;;;;;;5033852;28;20189;-71
2024/02/04 01:01:37;;;;;;;2.40;0.97;;;8.90;75.80;;;;;;5025867;28;20202;-72
2024/02/04 01:04:03;;;;;;;2.40;0.80;;;8.90;75.90;;;;;;5030147;28;20439;-70
2024/02/04 01:06:29;;;;;;;1.40;1.10;;;9.00;75.70;;;;;;5032702;28;20181;-70
2024/02/04 01:08:58;;;;;;;1.30;0.80;;;8.90;75.90;;;;;;5031394;28;20292;-70
2024/02/04 01:11:24;;;;;;;0.97;0.80;;;8.80;76.10;;;;;;5026328;28;20472;-71
2024/02/04 01:13:50;;;;;;;1.00;0.77;;;9.00;75.80;;;;;;5033745;28;21002;-70
2024/02/04 01:16:15;;;;;;;0.83;0.73;;;8.90;75.70;;;;;;5032704;28;20177;-68
2024/02/04 01:18:41;;;;;;;0.80;0.63;;;8.90;76.10;;;;;;5033026;28;20178;-70
2024/02/04 01:21:08;;;;;;;1.53;0.87;;;8.90;75.90;;;;;;5026801;28;20205;-70
2024/02/04 01:23:34;;;;;;;1.47;0.73;;;8.90;75.80;;;;;;5029690;28;20192;-72
2024/02/04 01:25:59;;;;;;;1.40;0.70;;;9.00;75.80;;;;;;5032281;28;20404;-70
2024/02/04 01:28:25;;;;;;;0.90;0.70;;;9.00;75.40;;;;;;5032225;28;20268;-70
2024/02/04 01:30:50;;;;;;;0.97;0.67;;;8.80;75.50;;;;;;5028233;28;20212;-70
2024/02/04 01:33:16;;;;;;;0.80;0.60;;;8.70;76.10;;;;;;5028464;28;20747;-71
2024/02/04 01:35:42;;;;;;;1.40;0.80;;;8.60;76.20;;;;;;5032061;28;20272;-71
2024/02/04 01:38:07;;;;;;;0.90;0.70;;;8.70;76.10;;;;;;5033607;28;20642;-70
2024/02/04 01:40:33;;;;;;;1.47;0.60;;;8.60;76.20;;;;;;5025852;28;20475;-69
2024/02/04 01:42:58;;;;;;;1.00;0.57;;;8.60;76.50;;;;;;5030589;28;20197;-70
2024/02/04 01:45:25;;;;;;;1.57;0.80;;;8.60;76.70;;;;;;5031623;28;21490;-71
2024/02/04 01:47:50;;;;;;;2.40;0.90;;;8.60;76.70;;;;;;5027867;28;20204;-71
2024/02/04 01:50:16;;;;;;;1.00;0.80;;;8.50;76.80;;;;;;5028919;28;20483;-71
2024/02/04 01:52:43;;;;;;;1.20;0.80;;;8.50;77.00;;;;;;5032109;28;20738;-69
2024/02/04 01:55:09;;;;;;;0.90;0.70;;;8.50;77.00;;;;;;5028579;28;20189;-69
2024/02/04 01:57:35;;;;;;;1.07;0.80;;;8.50;77.10;;;;;;5030611;28;20443;-70
2024/02/04 02:00:00;;;;;;;1.10;0.70;;;8.50;77.00;;;;;;5029019;28;20189;-69
2024/02/04 02:02:26;;;;;;;1.00;0.80;;;8.50;77.10;;;;;;5025011;28;20194;-70
2024/02/04 02:04:52;;;;;;;1.40;0.80;;;8.50;77.00;;;;;;5028236;28;20243;-69
2024/02/04 02:07:21;;;;;;;1.83;0.70;;;8.60;76.80;;;;;;5031424;28;20230;-69
2024/02/04 02:09:47;;;;;;;0.80;0.60;;;8.50;77.00;;;;;;5029024;28;20283;-70
2024/02/04 02:12:22;;;;;;;1.83;0.60;;;8.50;77.00;;;;;;5026340;28;20459;-70
2024/02/04 02:14:54;;;;;;;1.00;0.70;;;8.50;76.80;;;;;;5027429;28;20426;-69
2024/02/04 02:17:32;;;;;;;1.83;0.60;;;8.50;77.10;;;;;;5034281;28;20477;-70
2024/02/04 02:20:27;;;;;;;1.00;0.70;;;8.50;76.80;;;;;;5032750;28;20434;-69
2024/02/04 02:23:19;;;;;;;1.20;0.90;;;8.50;77.00;;;;;;5027375;28;20443;-68
2024/02/04 02:25:46;;;;;;;1.10;0.70;;;8.50;77.00;;;;;;5036644;28;20438;-70
2024/02/04 02:28:12;;;;;;;1.90;0.87;;;8.50;77.10;;;;;;5030104;28;20427;-69
2024/02/04 02:30:37;;;;;;;0.80;0.80;;;8.50;77.30;;;;;;5026638;28;20481;-70
2024/02/04 02:33:05;;;;;;;1.40;0.80;;;8.60;77.10;;;;;;5028051;28;20801;-70
2024/02/04 02:35:31;;;;;;;1.30;0.80;;;8.60;76.80;;;;;;5032411;28;20381;-70
2024/02/04 02:38:15;;;;;;;0.90;0.80;;;8.60;76.50;;;;;;5031100;28;20464;-70
2024/02/04 02:40:47;;;;;;;1.00;0.70;;;8.50;76.70;;;;;;5021780;28;20197;-71
2024/02/04 02:43:14;;;;;;;1.10;0.77;;;8.60;76.80;;;;;;5033779;28;20803;-69
2024/02/04 02:45:42;;;;;;;0.80;0.60;;;8.60;76.70;;;;;;5032593;28;20423;-71
2024/02/04 02:48:09;;;;;;;2.03;0.80;;;8.60;76.80;;;;;;5032548;28;20412;-70
2024/02/04 02:50:35;;;;;;;1.57;0.77;;;8.50;77.00;;;;;;5027365;28;20483;-69
2024/02/04 02:53:01;;;;;;;1.17;0.60;;;8.50;77.10;;;;;;5027189;28;20441;-69
2024/02/04 02:55:27;;;;;;;1.83;0.80;;;8.50;77.00;;;;;;5030765;28;20928;-71
2024/02/04 02:57:52;;;;;;;1.67;0.80;;;8.50;77.00;;;;;;5030163;28;20272;-69
2024/02/04 03:00:18;;;;;;;2.17;0.73;;;8.50;77.10;;;;;;5025500;28;20216;-69
2024/02/04 03:02:44;;;;;;;0.80;0.60;;;8.50;77.30;;;;;;5029533;28;20185;-70
2024/02/04 03:05:11;;;;;;;1.30;0.70;;;8.50;77.40;;;;;;5030450;28;20442;-70
2024/02/04 03:07:37;;;;;;;0.83;0.70;;;8.50;77.30;;;;;;5030735;28;20255;-70
2024/02/04 03:10:03;;;;;;;1.33;0.63;;;8.50;77.40;;;;;;5027585;28;20877;-68
2024/02/04 03:12:28;;;;;;;0.90;0.60;;;8.40;77.40;;;;;;5027117;28;20184;-69
2024/02/04 03:14:54;;;;;;;0.90;0.60;;;8.40;77.60;;;;;;5030269;28;20235;-70
2024/02/04 03:17:20;;;;;;;1.00;0.80;;;8.40;77.70;;;;;;5029803;28;20358;-69
2024/02/04 03:19:47;;;;;;;0.90;0.67;;;8.40;77.80;;;;;;5025397;28;20185;-70
2024/02/04 03:22:13;;;;;;;0.90;0.60;;;8.40;77.80;;;;;;5027603;28;20894;-70
2024/02/04 03:24:38;;;;;;;0.90;0.67;;;8.40;77.80;;;;;;5030177;28;20523;-70
2024/02/04 03:27:04;;;;;;;1.00;0.60;;;8.50;78.00;;;;;;5030115;28;20451;-70
2024/02/04 03:29:29;;;;;;;1.03;0.70;;;8.50;77.80;;;;;;5029146;28;20822;-70
2024/02/04 03:31:58;;;;;;;0.90;0.60;;;8.50;77.80;;;;;;5027314;28;20603;-70
2024/02/04 03:34:24;;;;;;;0.83;0.57;;;8.50;77.70;;;;;;5028465;28;20288;-69
2024/02/04 03:36:49;;;;;;;0.80;0.60;;;8.50;77.80;;;;;;5030136;28;20557;-70
2024/02/04 03:39:15;;;;;;;0.80;0.60;;;8.60;77.70;;;;;;5028703;28;20204;-69
2024/02/04 03:41:40;;;;;;;0.80;0.60;;;8.60;77.60;;;;;;5020985;28;20201;-69
2024/02/04 03:44:06;;;;;;;1.10;0.70;;;8.60;77.70;;;;;;5027872;28;20262;-68
2024/02/04 03:46:32;;;;;;;0.80;0.60;;;8.50;77.70;;;;;;5029983;28;20185;-70
2024/02/04 03:48:57;;;;;;;2.80;1.20;;;8.60;77.70;;;;;;5031176;28;20189;-71
2024/02/04 03:51:23;;;;;;;1.83;0.70;;;8.60;77.70;;;;;;5022718;28;20436;-68
2024/02/04 03:53:51;;;;;;;0.80;0.53;;;8.50;77.70;;;;;;5030900;28;20181;-70
2024/02/04 03:56:16;;;;;;;0.90;0.60;;;8.50;77.80;;;;;;5032579;28;20189;-69
2024/02/04 03:58:42;;;;;;;1.00;0.70;;;8.50;77.80;;;;;;5032046;28;20423;-69
2024/02/04 04:01:11;;;;;;;0.90;0.60;;;8.50;77.80;;;;;;5021456;28;20724;-70
2024/02/04 04:03:40;;;;;;;0.73;0.60;;;8.50;77.80;;;;;;5026152;28;20185;-70
2024/02/04 04:06:06;;;;;;;0.87;0.60;;;8.50;77.80;;;;;;5032936;28;20527;-70
2024/02/04 04:08:31;;;;;;;1.00;0.70;;;8.50;78.10;;;;;;5034326;28;20933;-72
2024/02/04 04:10:58;;;;;;;1.00;0.60;;;8.50;78.10;;;;;;5023872;28;20312;-70
2024/02/04 04:13:23;;;;;;;1.13;0.70;;;8.60;77.80;;;;;;5030683;28;20658;-70
2024/02/04 04:15:50;;;;;;;0.80;0.60;;;8.70;77.40;;;;;;5032737;28;20411;-71
2024/02/04 04:18:16;;;;;;;0.90;0.70;;;8.70;77.30;;;;;;5031948;28;20181;-71
2024/02/04 04:20:41;;;;;;;1.20;0.70;;;8.70;77.80;;;;;;5027611;28;20976;-71
2024/02/04 04:23:07;;;;;;;1.00;0.67;;;8.80;77.30;;;;;;5027845;28;20208;-69
2024/02/04 04:25:33;;;;;;;3.77;2.40;;;8.80;77.10;;;;;;5030181;28;20196;-70
2024/02/04 04:27:58;;;;;;;0.97;0.80;;;8.70;77.30;;;;;;5035466;28;20239;-71
2024/02/04 04:30:24;;;;;;;0.90;0.80;;;8.80;77.10;;;;;;5027550;28;20316;-72
2024/02/04 04:32:50;;;;;;;0.93;0.63;;;8.70;77.00;;;;;;5029038;28;20193;-69
2024/02/04 04:35:15;;;;;;;1.47;0.70;;;8.80;77.10;;;;;;5035744;28;20193;-70
2024/02/04 04:37:41;;;;;;;1.00;0.67;;;8.80;77.00;;;;;;5030965;28;20677;-69
2024/02/04 04:40:07;;;;;;;1.53;0.70;;;8.80;76.80;;;;;;5031401;28;20192;-70
2024/02/04 04:42:33;;;;;;;0.70;0.50;;;8.80;77.10;;;;;;5027647;28;20616;-68
2024/02/04 04:44:58;;;;;;;1.00;0.63;;;8.80;77.10;;;;;;5032174;28;20523;-71
2024/02/04 04:47:24;;;;;;;1.30;0.77;;;8.80;77.40;;;;;;5032927;28;20178;-72
2024/02/04 04:49:49;;;;;;;1.47;0.80;;;8.80;77.40;;;;;;5032274;28;20216;-70
2024/02/04 04:52:16;;;;;;;0.70;0.67;;;8.80;77.00;;;;;;5022875;28;20205;-70
2024/02/04 04:54:42;;;;;;;2.00;0.60;;;8.90;76.70;;;;;;5027971;28;20654;-71
2024/02/04 04:57:08;;;;;;;0.70;0.50;;;8.80;76.70;;;;;;5033164;28;20424;-70
2024/02/04 04:59:35;;;;;;;0.90;0.70;;;8.70;77.00;;;;;;5032389;28;20272;-70
2024/02/04 05:02:01;;;;;;;1.27;0.70;;;8.70;77.10;;;;;;5020355;28;20271;-69
2024/02/04 05:04:27;;;;;;;1.43;0.77;;;8.70;77.00;;;;;;5030058;28;20427;-71
2024/02/04 05:06:53;;;;;;;1.03;0.60;;;8.70;77.00;;;;;;5032870;28;20284;-70
2024/02/04 05:09:18;;;;;;;5.67;0.80;;;8.70;77.00;;;;;;5033551;28;20189;-70
2024/02/04 05:11:44;;;;;;;0.77;0.50;;;8.70;77.00;;;;;;5023709;28;20483;-69
2024/02/04 05:14:10;;;;;;;1.33;0.57;;;8.70;77.00;;;;;;5032322;28;20181;-70
2024/02/04 05:16:36;;;;;;;0.90;0.60;;;8.70;76.80;;;;;;5033328;28;20661;-70
2024/02/04 05:19:02;;;;;;;1.40;0.80;;;8.60;77.00;;;;;;5032013;28;20189;-67
2024/02/04 05:21:28;;;;;;;1.20;0.70;;;8.60;77.30;;;;;;5027677;28;20214;-69
2024/02/04 05:23:53;;;;;;;0.70;0.60;;;8.60;77.10;;;;;;5036208;28;20462;-68
2024/02/04 05:26:19;;;;;;;1.27;0.60;;;8.60;77.10;;;;;;5033803;28;20431;-70
2024/02/04 05:28:45;;;;;;;0.60;0.53;;;8.60;77.10;;;;;;5031912;28;20185;-70
2024/02/04 05:31:10;;;;;;;1.00;0.70;;;8.60;77.30;;;;;;5026039;28;20216;-71
2024/02/04 05:33:36;;;;;;;2.57;0.60;;;8.60;77.00;;;;;;5026907;28;20199;-71
2024/02/04 05:36:01;;;;;;;1.60;0.73;;;8.60;76.80;;;;;;5032097;28;20993;-68
2024/02/04 05:38:27;;;;;;;0.97;0.60;;;8.60;76.80;;;;;;5040490;28;20178;-70
2024/02/04 05:40:53;;;;;;;0.77;0.60;;;8.50;77.10;;;;;;5036909;28;20205;-69
2024/02/04 05:43:18;;;;;;;0.90;0.60;;;8.40;77.30;;;;;;5034497;28;20212;-70
2024/02/04 05:45:44;;;;;;;1.20;0.80;;;8.50;77.40;;;;;;5036180;28;20197;-68
2024/02/04 05:48:10;;;;;;;0.93;0.70;;;8.50;77.30;;;;;;5040084;28;20212;-68
2024/02/04 05:50:35;;;;;;;2.73;0.77;;;8.50;77.30;;;;;;5030743;28;20221;-71
2024/02/04 05:53:01;;;;;;;0.90;0.60;;;8.50;77.30;;;;;;5027783;28;20420;-70
2024/02/04 05:55:27;;;;;;;1.83;0.70;;;8.50;77.30;;;;;;5032188;28;20424;-70
2024/02/04 05:57:53;;;;;;;0.80;0.60;;;8.40;77.40;;;;;;5036657;28;20925;-70
2024/02/04 06:00:18;;;;;;;0.90;0.60;;;8.40;77.60;;;;;;5030942;28;20209;-70
2024/02/04 06:02:44;;;;;;;0.80;0.60;;;8.40;77.60;;;;;;5019020;28;20189;-70
2024/02/04 06:05:11;;;;;;;0.77;0.50;;;8.40;77.70;;;;;;5029007;28;20242;-70
2024/02/04 06:07:36;;;;;;;0.90;0.60;;;8.40;77.70;;;;;;5032574;28;20269;-71
2024/02/04 06:10:03;;;;;;;1.60;0.67;;;8.40;78.00;;;;;;5030189;28;20455;-69
2024/02/04 06:12:29;;;;;;;1.00;0.60;;;8.40;77.80;;;;;;5024102;28;20556;-71
2024/02/04 06:14:55;;;;;;;1.30;0.73;;;8.40;77.80;;;;;;5029637;28;20589;-70
2024/02/04 06:17:20;;;;;;;0.60;0.50;;;8.40;77.80;;;;;;5028159;28;20452;-71
2024/02/04 06:19:46;;;;;;;1.60;0.60;;;8.40;77.80;;;;;;5031904;28;20182;-72
2024/02/04 06:22:12;;;;;;;2.03;1.00;;;8.40;77.80;;;;;;5029773;28;20219;-70
2024/02/04 06:24:38;;;;;;;0.70;0.50;;;8.40;77.80;;;;;;5033404;28;20616;-71
2024/02/04 06:27:04;;;;;;;0.90;0.60;;;8.40;77.80;;;;;;5033666;28;20193;-70
2024/02/04 06:29:30;;;;;;;0.70;0.50;;;8.50;77.70;;;;;;5031534;28;20443;-68
2024/02/04 06:31:56;;;;;;;0.70;0.50;;;8.50;77.70;;;;;;5021933;28;20207;-71
2024/02/04 06:34:21;;;;;;;0.70;0.50;;;8.50;77.70;;;;;;5028885;28;20205;-70
2024/02/04 06:36:47;;;;;;;0.80;0.50;;;8.50;77.60;;;;;;5030534;28;20181;-70
2024/02/04 06:39:13;;;;;;;1.47;0.67;;;8.50;77.60;;;;;;5033114;28;20215;-70
2024/02/04 06:41:39;;;;;;;0.90;0.60;;;8.50;77.60;;;;;;5025027;28;20267;-72
2024/02/04 06:44:04;;;;;;;1.00;0.70;;;8.50;77.70;;;;;;5033081;28;20435;-70
2024/02/04 06:46:30;;;;;;;0.77;0.60;;;8.50;77.70;;;;;;5029361;28;20697;-70
2024/02/04 06:48:56;;;;;;;0.70;0.50;;;8.50;77.70;;;;;;5028216;28;20215;-69
2024/02/04 06:51:22;;;;;;;1.33;0.80;;;8.40;77.60;;;;;;5023133;28;21395;-70
2024/02/04 06:53:47;;;;;;;0.77;0.60;;;8.40;77.80;;;;;;5029981;28;20252;-70
2024/02/04 06:56:13;;;;;;;0.90;0.60;;;8.40;77.80;;;;;;5029340;28;20494;-70
2024/02/04 06:58:40;;;;;;;1.33;0.73;;;8.40;78.00;;;;;;5023974;28;20181;-71
2024/02/04 07:01:05;;;;;;;1.03;0.70;;;8.40;77.80;;;;;;5027006;28;20561;-70
2024/02/04 07:03:32;;;;;;;2.30;0.77;;;8.50;77.70;;;;;;5028269;28;20440;-70
2024/02/04 07:05:59;;;;;;;1.10;0.70;;;8.40;77.70;;;;;;5029844;28;20231;-71
2024/02/04 07:08:24;;;;;;;0.90;0.60;;;8.40;78.00;;;;;;5030286;28;20518;-70
2024/02/04 07:10:51;;;;;;;0.70;0.50;;;8.30;78.30;;;;;;5026137;28;20625;-68
2024/02/04 07:13:17;;;;;;;0.80;0.60;;;8.30;78.40;;;;;;5027909;28;20177;-69
2024/02/04 07:15:42;;;;;;;1.43;0.70;;;8.30;78.40;;;;;;5030572;28;20430;-69
2024/02/04 07:18:08;;;;;;;0.90;0.60;;;8.30;78.40;;;;;;5030623;28;20420;-70
2024/02/04 07:20:33;;;;;;;1.10;0.50;;;8.40;78.40;;;;;;5026994;28;20244;-70
2024/02/04 07:22:59;;;;;;;1.40;0.60;;;8.40;78.60;;;;;;5029082;28;20180;-70
2024/02/04 07:25:25;;;;;;;0.90;0.73;;;8.40;78.60;;;;;;5029870;28;20646;-70
2024/02/04 07:27:50;;;;;;;0.70;0.60;;;8.30;78.60;;;;;;5026321;28;20174;-69
2024/02/04 07:30:17;;;;;;;1.33;0.70;;;8.40;78.40;;;;;;5024602;28;20220;-69
2024/02/04 07:32:42;;;;;;;1.00;0.60;;;8.40;78.40;;;;;;5024957;28;20247;-69
2024/02/04 07:35:09;;;;;;;0.97;0.70;;;8.40;78.40;;;;;;5029494;28;20475;-70
2024/02/04 07:37:35;;;;;;;1.03;0.60;;;8.40;78.40;;;;;;5027082;28;20456;-70
2024/02/04 07:40:01;;;;;;;1.00;0.70;;;8.40;78.30;;;;;;5028118;28;20622;-69
2024/02/04 07:42:27;;;;;;;1.10;0.60;;;8.40;78.40;;;;;;5022665;28;20537;-71
2024/02/04 07:44:53;;;;;;;0.83;0.67;;;8.40;78.40;;;;;;5030476;28;20184;-69
2024/02/04 07:47:22;;;;;;;0.83;0.50;;;8.50;78.30;;;;;;5030843;28;20435;-71
2024/02/04 07:49:48;;;;;;;1.13;0.70;;;8.50;78.00;;;;;;5024702;28;20419;-71
2024/02/04 07:52:14;;;;;;;0.93;0.63;;;8.60;77.80;;;;;;5017897;28;20462;-69
2024/02/04 07:54:40;;;;;;;1.93;0.70;;;8.60;77.80;;;;;;5033679;28;20436;-71
2024/02/04 07:57:05;;;;;;;1.43;0.73;;;8.60;77.60;;;;;;5034450;28;20669;-70
2024/02/04 07:59:31;;;;;;;0.87;0.73;;;8.70;77.40;;;;;;5036249;28;20192;-71
2024/02/04 08:01:56;;;;;;;0.90;0.50;;;8.60;77.30;;;;;;5030602;28;20216;-72
2024/02/04 08:04:22;;;;;;;1.10;0.80;;;8.70;77.40;;;;;;5026281;28;20227;-72
2024/02/04 08:06:48;;;;;;;1.37;0.87;;;8.60;77.40;;;;;;5036031;28;20184;-71
2024/02/04 08:09:13;;;;;;;1.10;0.80;;;8.70;77.60;;;;;;5034889;28;20284;-70
2024/02/04 08:11:39;;;;;;;0.90;0.70;;;8.70;77.30;;;;;;5031046;28;20243;-69
2024/02/04 08:14:05;;;;;;;1.00;0.70;;;8.70;77.30;;;;;;5033466;28;20185;-71
2024/02/04 08:16:31;;;;;;;1.10;0.80;;;8.70;77.30;;;;;;5033270;28;20431;-72
2024/02/04 08:18:57;;;;;;;1.50;0.83;;;8.70;77.30;;;;;;5029052;28;20213;-70
2024/02/04 08:21:22;;;;;;;0.90;0.60;;;8.70;77.30;;;;;;5025738;28;20713;-70
2024/02/04 08:23:48;;;;;;;1.67;0.70;;;8.80;77.10;;;;;;5024855;28;20426;-70
2024/02/04 08:26:14;;;;;;;2.10;1.07;;;8.80;77.00;;;;;;5030048;28;20241;-71
2024/02/04 08:28:39;;;;;;;1.93;0.90;;;8.80;77.00;;;;;;5030148;28;20181;-71
2024/02/04 08:31:05;;;;;;;1.60;0.90;;;8.90;76.80;;;;;;5025767;28;20321;-71
2024/02/04 08:33:31;;;;;;;3.93;1.10;;;8.80;76.70;;;;;;5023214;28;20615;-71
2024/02/04 08:35:56;;;;;;;1.10;0.70;;;8.80;77.00;;;;;;5029734;28;20268;-69
2024/02/04 08:38:22;;;;;;;1.03;0.60;;;8.80;77.00;;;;;;5029447;28;20186;-70
2024/02/04 08:40:47;;;;;;;1.10;0.70;;;8.90;77.00;;;;;;5020704;28;20209;-71
2024/02/04 08:43:13;;;;;;;1.23;1.00;;;9.00;76.70;;;;;;5025133;28;20685;-69
2024/02/04 08:45:39;;;;;;;1.33;0.87;;;9.00;76.40;;;;;;5024494;28;20173;-69
2024/02/04 08:48:05;;;;;;;1.60;1.10;;;9.00;76.40;;;;;;5030711;28;20181;-71
2024/02/04 08:50:31;;;;;;;1.00;0.80;;;9.10;76.20;;;;;;5025255;28;20487;-71
2024/02/04 08:52:57;;;;;;;1.17;0.87;;;9.10;76.10;;;;;;5031937;28;20420;-69
2024/02/04 08:55:22;;;;;;;1.13;0.87;;;9.10;76.10;;;;;;5031565;28;20212;-71
2024/02/04 08:57:48;;;;;;;1.53;1.10;;;9.10;76.20;;;;;;5031343;28;20188;-71
2024/02/04 09:00:15;;;;;;;4.40;0.80;;;9.20;75.90;;;;;;5025995;28;20211;-69
2024/02/04 09:02:41;;;;;;;1.13;0.80;;;9.20;75.80;;;;;;5023719;28;20595;-70
2024/02/04 09:05:07;;;;;;;0.90;0.77;;;9.30;75.80;;;;;;5029419;28;20447;-70
2024/02/04 09:07:32;;;;;;;0.80;0.70;;;9.30;75.80;;;;;;5028285;28;20307;-71
2024/02/04 09:09:58;;;;;;;1.30;0.83;;;9.30;75.80;;;;;;5029269;28;20487;-69
2024/02/04 09:12:23;;;;;;;1.13;0.63;;;9.40;75.50;;;;;;5026970;28;20271;-71
2024/02/04 09:14:50;;;;;;;1.50;0.90;;;9.50;75.20;;;;;;5035256;28;20272;-73
2024/02/04 09:17:16;;;;;;;2.20;0.80;;;9.50;75.10;;;;;;5033371;28;20278;-70
2024/02/04 09:19:42;;;;;;;1.20;0.77;;;9.50;75.10;;;;;;5032559;28;20404;-71
2024/02/04 09:22:07;;;;;;;1.47;0.80;;;9.60;74.90;;;;;;5026230;28;20274;-71
2024/02/04 09:24:33;;;;;;;0.80;0.60;;;9.60;74.80;;;;;;5031406;28;20207;-71
2024/02/04 09:26:59;;;;;;;1.13;0.70;;;9.60;74.90;;;;;;5032998;28;20193;-71
2024/02/04 09:29:24;;;;;;;2.10;0.77;;;9.70;74.80;;;;;;5032846;28;20271;-72
2024/02/04 09:31:51;;;;;;;1.70;0.80;;;9.80;74.50;;;;;;5028994;28;20241;-71
2024/02/04 09:34:17;;;;;;;2.43;1.00;;;9.90;74.30;;;;;;5024514;28;20208;-71
2024/02/04 09:36:44;;;;;;;0.90;0.70;;;9.90;73.60;;;;;;5033498;28;20420;-72
2024/02/04 09:39:09;;;;;;;1.40;0.80;;;10.00;73.90;;;;;;5032265;28;20181;-72
2024/02/04 09:41:35;;;;;;;0.80;0.60;;;10.10;73.60;;;;;;5027878;28;20523;-71
2024/02/04 09:44:03;;;;;;;1.10;0.70;;;10.20;73.30;;;;;;5031300;28;20226;-71
2024/02/04 09:46:29;;;;;;;1.03;0.60;;;10.20;72.70;;;;;;5031688;28;20514;-72
2024/02/04 09:48:55;;;;;;;0.80;0.57;;;10.20;72.90;;;;;;5029118;28;21194;-70
2024/02/04 09:51:22;;;;;;;1.63;0.70;;;10.30;72.90;;;;;;5027703;28;20479;-71
2024/02/04 09:53:52;;;;;;;0.83;0.57;;;10.40;72.40;;;;;;5029337;28;20804;-72
2024/02/04 09:56:20;;;;;;;1.30;0.70;;;10.40;72.40;;;;;;5030391;28;20897;-71
2024/02/04 09:58:46;;;;;;;0.93;0.70;;;10.50;72.60;;;;;;5026773;28;20951;-71
2024/02/04 10:01:13;;;;;;;0.60;0.50;;;10.60;71.60;;;;;;5033366;28;20456;-71
2024/02/04 10:03:39;;;;;;;2.50;1.17;;;10.70;71.70;;;;;;5028567;28;20260;-70
2024/02/04 10:06:05;;;;;;;1.10;0.60;;;10.80;71.10;;;;;;5038884;28;20474;-71
2024/02/04 10:08:36;;;;;;;2.90;1.10;;;10.70;71.10;;;;;;5040160;28;20252;-72
2024/02/04 10:11:01;;;;;;;1.43;0.90;;;10.70;71.40;;;;;;5026196;28;20484;-71
2024/02/04 10:13:27;;;;;;;4.40;1.30;;;10.60;71.30;;;;;;5030687;28;20499;-71
2024/02/04 10:15:53;;;;;;;1.90;1.10;;;10.60;71.60;;;;;;5032716;28;20190;-71
2024/02/04 10:18:18;;;;;;;2.13;1.00;;;10.60;71.70;;;;;;5032500;28;20177;-71
2024/02/04 10:20:44;;;;;;;1.93;0.60;;;10.70;71.40;;;;;;5028874;28;20204;-72
2024/02/04 10:23:09;;;;;;;1.17;0.60;;;10.80;71.10;;;;;;5031594;28;20189;-71
2024/02/04 10:25:35;;;;;;;1.30;0.80;;;10.90;71.10;;;;;;5034819;28;20181;-71
2024/02/04 10:28:01;;;;;;;0.90;0.70;;;11.00;70.70;;;;;;5028988;28;20723;-71
2024/02/04 10:30:27;;;;;;;1.53;0.80;;;11.00;70.50;;;;;;5028294;28;20217;-71
2024/02/04 10:32:53;;;;;;;1.93;0.60;;;11.10;70.50;;;;;;5028827;28;20252;-72
2024/02/04 10:35:23;;;;;;;1.50;1.03;;;11.30;70.10;;;;;;5030531;28;20419;-70
2024/02/04 10:37:52;;;;;;;1.57;0.67;;;11.40;69.80;;;;;;5036421;28;20450;-70
2024/02/04 10:40:18;;;;;;;0.90;0.60;;;11.40;69.70;;;;;;5033586;28;21352;-72
2024/02/04 10:42:45;;;;;;;0.90;0.60;;;11.50;69.50;;;;;;5033188;28;20657;-71
2024/02/04 10:45:11;;;;;;;1.23;0.50;;;11.50;68.90;;;;;;5035901;28;20795;-70
2024/02/04 10:47:40;;;;;;;1.30;0.60;;;11.60;68.60;;;;;;5037462;28;20408;-68
2024/02/04 10:50:06;;;;;;;0.90;0.63;;;11.80;68.60;;;;;;5030119;28;20989;-72
2024/02/04 10:52:40;;;;;;;1.00;0.70;;;12.00;68.30;;;;;;5029028;28;20428;-71
2024/02/04 10:55:10;;;;;;;0.90;0.70;;;12.20;67.90;;;;;;5028531;28;20948;-71
2024/02/04 10:57:37;;;;;;;1.73;0.63;;;12.20;67.60;;;;;;5033350;28;20443;-71
2024/02/04 11:00:08;;;;;;;1.10;0.60;;;12.20;67.60;;;;;;5032242;28;21003;-69
2024/02/04 11:02:35;;;;;;;1.07;0.50;;;12.10;67.90;;;;;;5035999;28;20416;-72
2024/02/04 11:05:04;;;;;;;0.67;0.47;;;12.10;68.20;;;;;;5032108;28;20420;-69
2024/02/04 11:07:32;;;;;;;0.90;0.50;;;12.00;68.20;;;;;;5031869;28;20436;-70
2024/02/04 11:09:58;;;;;;;1.20;0.60;;;12.00;68.50;;;;;;5029536;28;20440;-68
2024/02/04 11:12:25;;;;;;;1.80;0.57;;;12.00;68.60;;;;;;5023725;28;20532;-69
2024/02/04 11:14:55;;;;;;;3.30;0.70;;;12.00;68.50;;;;;;5029309;28;20416;-70
2024/02/04 11:17:26;;;;;;;0.90;0.50;;;12.00;68.60;;;;;;5029271;28;20498;-71
2024/02/04 11:20:11;;;;;;;0.80;0.60;;;12.20;68.50;;;;;;5033259;28;20428;-72
2024/02/04 11:23:00;;;;;;;1.40;0.70;;;12.50;67.60;;;;;;5030556;28;20412;-72
2024/02/04 11:25:42;;;;;;;1.67;0.70;;;13.00;66.90;;;;;;5029268;28;20427;-69
2024/02/04 11:28:09;;;;;;;1.00;0.60;;;13.40;65.70;;;;;;5031185;28;20416;-70
2024/02/04 11:30:35;;;;;;;1.10;0.73;;;13.80;65.10;;;;;;5025800;28;20475;-70
2024/02/04 11:33:05;;;;;;;2.17;0.77;;;13.70;64.80;;;;;;5026503;28;20843;-71
2024/02/04 11:35:33;;;;;;;1.10;0.80;;;13.20;65.30;;;;;;5031192;28;21146;-70
2024/02/04 11:38:00;;;;;;;1.37;0.80;;;13.10;66.00;;;;;;5030700;28;20420;-70
2024/02/04 11:40:30;;;;;;;1.20;0.77;;;13.00;66.10;;;;;;5024847;28;20459;-70
2024/02/04 11:43:12;;;;;;;0.80;0.50;;;13.30;65.80;;;;;;5029110;28;21007;-71
2024/02/04 11:45:42;;;;;;;1.07;0.70;;;13.20;66.10;;;;;;5026883;28;20408;-70
2024/02/04 11:48:12;;;;;;;0.90;0.60;;;12.90;66.40;;;;;;5033037;28;20957;-70
2024/02/04 11:50:39;;;;;;;3.40;1.00;;;12.90;66.70;;;;;;5028078;28;20479;-71
2024/02/04 11:53:09;;;;;;;0.73;0.50;;;13.00;66.70;;;;;;5032808;28;20503;-71
2024/02/04 11:55:36;;;;;;;0.70;0.50;;;13.00;66.60;;;;;;5028767;28;20416;-70
2024/02/04 11:58:03;;;;;;;1.00;0.80;;;13.00;66.40;;;;;;5031372;28;20486;-71
2024/02/04 12:00:29;;;;;;;3.13;1.00;;;13.00;66.40;;;;;;5026910;28;21039;-71
2024/02/04 12:03:02;;;;;;;1.23;0.70;;;13.10;66.40;;;;;;5026088;28;20557;-72
2024/02/04 12:05:31;;;;;;;0.80;0.50;;;13.20;66.40;;;;;;5029836;28;20332;-69
2024/02/04 12:07:56;;;;;;;0.90;0.60;;;13.00;66.30;;;;;;5034360;28;20435;-70
2024/02/04 12:10:22;;;;;;;1.50;0.83;;;12.80;67.20;;;;;;5031770;28;20498;-71
2024/02/04 12:12:48;;;;;;;1.33;0.87;;;12.80;67.20;;;;;;5030478;28;20243;-71
2024/02/04 12:15:14;;;;;;;1.00;0.70;;;12.80;67.20;;;;;;5035160;28;20193;-70
2024/02/04 12:17:40;;;;;;;0.73;0.57;;;12.90;67.00;;;;;;5038825;28;20197;-70
2024/02/04 12:20:06;;;;;;;0.93;0.60;;;12.70;67.20;;;;;;5037574;28;20447;-68
2024/02/04 12:22:33;;;;;;;1.63;0.70;;;12.60;67.70;;;;;;5037316;28;21058;-72
2024/02/04 12:24:59;;;;;;;0.90;0.50;;;12.60;67.70;;;;;;5033911;28;21281;-69
2024/02/04 12:27:26;;;;;;;1.30;0.80;;;12.50;67.90;;;;;;5039850;28;20431;-71
2024/02/04 12:29:52;;;;;;;1.23;0.60;;;12.30;68.30;;;;;;5037007;28;20478;-71
2024/02/04 12:32:19;;;;;;;1.37;0.70;;;12.10;69.10;;;;;;5026113;28;20474;-70
2024/02/04 12:34:48;;;;;;;1.00;0.70;;;12.00;69.40;;;;;;5027086;28;20817;-69
2024/02/04 12:37:14;;;;;;;0.90;0.60;;;11.90;69.70;;;;;;5028022;28;20505;-72
2024/02/04 12:39:40;;;;;;;0.67;0.50;;;11.90;69.50;;;;;;5033699;28;20901;-70
2024/02/04 12:42:05;;;;;;;1.07;0.60;;;11.80;69.70;;;;;;5030941;28;20216;-71
2024/02/04 12:44:31;;;;;;;1.47;0.63;;;11.90;69.80;;;;;;5033799;28;20212;-72
2024/02/04 12:46:57;;;;;;;1.43;0.70;;;12.20;68.90;;;;;;5037510;28;20181;-73
2024/02/04 12:49:23;;;;;;;1.17;0.70;;;12.50;68.60;;;;;;5032844;28;20411;-70
2024/02/04 12:51:49;;;;;;;0.90;0.70;;;12.70;68.00;;;;;;5031919;28;20216;-70